Blairstown, Iowa
Current Conditions -  °F | °C
As of 9:52 AM on Saturday 22 Nov 2014 (Local Time) from KCID Reporting Station
Moderate Fog Moderate Fog  
Wind Chill: 35°   Ceiling: 200
Heat Index: 41°   Visibility: 0.25mi
Dew Point: 41°   Wind: 10mph
Humidity: 100%   Direction: 170°S
Pressure: 29.87"   Gusts: NA
Location:  41.91°N, 92.08°W
Report Text: KCID 221552Z 17009KT 1/4SM FG VV002 05/05 A2987 RMK AO2 SLP123 T00500050
Loading
Personal Weather Stations






























Interactive Weather Map New forecast layout! Learn more

10-Day Weather Forecast

Advertisements
Track Severe Weather on mobile